createdAt,value
2019-06-27T00:00:08.662Z,40.88
2019-06-27T00:00:48.019Z,21.17
2019-06-27T00:01:27.189Z,31.52
2019-06-27T00:02:07.616Z,19.85
2019-06-27T00:02:46.995Z,21.68
2019-06-27T00:03:25.889Z,19.92
2019-06-27T00:04:05.204Z,20.72
2019-06-27T00:04:44.316Z,21.40
2019-06-27T00:05:23.622Z,17.67
2019-06-27T00:06:03.388Z,27.87
2019-06-27T00:06:43.030Z,22.90
2019-06-27T00:07:22.080Z,28.62
2019-06-27T00:08:01.169Z,21.45
2019-06-27T00:08:40.245Z,28.77
2019-06-27T00:09:20.253Z,23.05
2019-06-27T00:09:59.158Z,26.52
2019-06-27T00:10:38.516Z,32.00
2019-06-27T00:11:16.916Z,29.95
2019-06-27T00:11:56.210Z,20.95
2019-06-27T00:12:35.356Z,23.42
2019-06-27T00:13:13.894Z,21.75
2019-06-27T00:13:53.154Z,27.70
2019-06-27T00:14:32.159Z,26.65
2019-06-27T00:15:10.718Z,27.75
2019-06-27T00:15:49.747Z,22.50
2019-06-27T00:16:28.676Z,28.98
2019-06-27T00:17:07.066Z,23.42
2019-06-27T00:17:45.996Z,26.57
2019-06-27T00:18:25.132Z,25.02
2019-06-27T00:19:03.923Z,29.00
2019-06-27T00:19:43.713Z,22.73
2019-06-27T00:20:23.648Z,23.15
2019-06-27T00:21:05.274Z,27.48
2019-06-27T00:21:44.374Z,24.07
2019-06-27T00:22:26.587Z,25.45
2019-06-27T00:23:05.478Z,24.12
2019-06-27T00:23:44.607Z,23.62
2019-06-27T00:24:23.791Z,27.02
2019-06-27T00:25:02.265Z,24.30
2019-06-27T00:25:41.711Z,29.45
2019-06-27T00:26:21.227Z,27.37
2019-06-27T00:26:59.777Z,31.62
2019-06-27T00:27:38.846Z,27.10
2019-06-27T00:28:18.190Z,28.62
2019-06-27T00:28:56.789Z,26.52
2019-06-27T00:29:35.738Z,27.05
2019-06-27T00:30:15.007Z,24.98
2019-06-27T00:30:53.443Z,27.45
2019-06-27T00:31:32.627Z,31.37
2019-06-27T00:32:11.605Z,29.00
2019-06-27T00:32:50.246Z,29.72
2019-06-27T00:33:29.439Z,32.25
2019-06-27T00:34:08.456Z,30.80
2019-06-27T00:34:46.811Z,29.37
2019-06-27T00:35:25.879Z,27.95
2019-06-27T00:36:04.865Z,29.50
2019-06-27T00:36:43.392Z,26.97
2019-06-27T00:37:22.307Z,31.42
2019-06-27T00:38:01.258Z,26.30
2019-06-27T00:38:39.662Z,39.73
2019-06-27T00:39:19.044Z,27.48
2019-06-27T00:39:58.179Z,30.27
2019-06-27T00:40:36.500Z,26.97
2019-06-27T00:41:15.395Z,26.50
2019-06-27T00:41:54.314Z,26.65
2019-06-27T00:42:32.713Z,34.00
2019-06-27T00:43:11.866Z,30.82
2019-06-27T00:43:50.815Z,26.12
2019-06-27T00:44:29.222Z,25.70
2019-06-27T00:45:08.814Z,27.87
2019-06-27T00:45:47.803Z,24.18
2019-06-27T00:46:26.213Z,28.17
2019-06-27T00:47:05.426Z,26.62
2019-06-27T00:47:44.546Z,24.90
2019-06-27T00:48:23.156Z,26.65
2019-06-27T00:49:02.109Z,28.67
2019-06-27T00:49:41.087Z,32.63
2019-06-27T00:50:19.835Z,24.37
2019-06-27T00:50:58.826Z,27.58
2019-06-27T00:51:37.795Z,27.45
2019-06-27T00:52:16.227Z,25.92
2019-06-27T00:52:55.412Z,26.02
2019-06-27T00:53:34.405Z,25.37
2019-06-27T00:54:13.046Z,25.52
2019-06-27T00:54:51.969Z,27.48
2019-06-27T00:55:31.504Z,25.85
2019-06-27T00:56:10.108Z,25.45
2019-06-27T00:56:49.362Z,28.80
2019-06-27T00:57:28.501Z,27.95
2019-06-27T00:58:07.060Z,24.10
2019-06-27T00:58:46.220Z,24.35
2019-06-27T00:59:25.223Z,24.05
2019-06-27T01:00:03.703Z,24.98
2019-06-27T01:00:42.851Z,23.97
2019-06-27T01:01:21.815Z,27.42
2019-06-27T01:02:00.550Z,27.42
2019-06-27T01:02:39.528Z,23.27
2019-06-27T01:03:18.558Z,26.27
2019-06-27T01:03:57.374Z,23.42
2019-06-27T01:04:36.438Z,26.93
2019-06-27T01:05:15.634Z,24.55
2019-06-27T01:05:54.250Z,23.55
2019-06-27T01:06:33.135Z,27.02
2019-06-27T01:07:12.753Z,27.00
2019-06-27T01:07:51.436Z,26.27
2019-06-27T01:08:30.391Z,25.43
2019-06-27T01:09:09.423Z,25.32
2019-06-27T01:09:48.063Z,22.95
2019-06-27T01:10:27.231Z,24.30
2019-06-27T01:11:06.358Z,24.43
2019-06-27T01:11:45.103Z,25.32
2019-06-27T01:12:24.294Z,23.30
2019-06-27T01:13:03.518Z,25.75
2019-06-27T01:13:42.158Z,22.95
2019-06-27T01:14:21.151Z,24.70
2019-06-27T01:15:00.338Z,22.98
2019-06-27T01:15:38.726Z,23.45
2019-06-27T01:16:19.452Z,33.28
2019-06-27T01:16:59.230Z,24.32
2019-06-27T01:17:37.874Z,24.25
2019-06-27T01:18:16.966Z,24.67
2019-06-27T01:18:56.061Z,22.07
2019-06-27T01:19:34.804Z,24.45
2019-06-27T01:20:13.860Z,24.00
2019-06-27T01:20:52.966Z,24.45
2019-06-27T01:21:31.473Z,26.62
2019-06-27T01:22:10.562Z,25.50
2019-06-27T01:22:49.569Z,24.23
2019-06-27T01:23:28.199Z,23.95
2019-06-27T01:24:07.390Z,27.55
2019-06-27T01:24:46.709Z,25.65
2019-06-27T01:25:25.462Z,25.50
2019-06-27T01:26:04.550Z,24.07
2019-06-27T01:26:43.543Z,25.67
2019-06-27T01:27:29.874Z,24.43
2019-06-27T01:28:02.292Z,26.00
2019-06-27T01:28:41.266Z,25.27
2019-06-27T01:29:19.735Z,23.45
2019-06-27T01:29:59.604Z,28.85
2019-06-27T01:30:38.848Z,25.30
2019-06-27T01:31:17.607Z,25.02
2019-06-27T01:31:57.196Z,24.37
2019-06-27T01:32:36.155Z,24.57
2019-06-27T01:33:14.762Z,23.70
2019-06-27T01:33:53.734Z,29.02
2019-06-27T01:34:32.767Z,26.82
2019-06-27T01:35:11.631Z,23.90
2019-06-27T01:35:50.754Z,23.50
2019-06-27T01:36:29.774Z,26.17
2019-06-27T01:37:08.091Z,25.05
2019-06-27T01:37:47.058Z,25.52
2019-06-27T01:38:25.928Z,25.08
2019-06-27T01:39:04.255Z,27.50
2019-06-27T01:39:43.202Z,25.88
2019-06-27T01:40:22.119Z,26.65
2019-06-27T01:41:00.514Z,24.07
2019-06-27T01:41:39.465Z,26.70
2019-06-27T01:42:18.432Z,23.83
2019-06-27T01:42:56.774Z,26.70
2019-06-27T01:43:35.724Z,25.35
2019-06-27T01:44:31.506Z,25.95
2019-06-27T01:45:18.156Z,26.62
2019-06-27T01:45:59.025Z,26.93
2019-06-27T01:46:37.967Z,28.00
2019-06-27T01:47:16.346Z,27.07
2019-06-27T01:47:55.266Z,26.48
2019-06-27T01:48:34.239Z,29.07
2019-06-27T01:49:12.724Z,25.23
2019-06-27T01:49:51.659Z,24.30
2019-06-27T01:50:30.586Z,26.87
2019-06-27T01:51:09.007Z,27.35
2019-06-27T01:51:47.950Z,25.57
2019-06-27T01:52:26.917Z,26.35
2019-06-27T01:53:05.510Z,25.75
2019-06-27T01:53:44.441Z,25.90
2019-06-27T01:54:23.676Z,26.35
2019-06-27T01:55:02.059Z,27.02
2019-06-27T01:55:41.025Z,24.77
2019-06-27T01:56:19.918Z,24.57
2019-06-27T01:56:58.267Z,26.12
2019-06-27T01:57:46.583Z,25.32
2019-06-27T01:58:17.561Z,24.37
2019-06-27T01:58:55.918Z,26.10
2019-06-27T01:59:34.854Z,24.95
2019-06-27T02:00:13.810Z,26.97
2019-06-27T02:00:52.158Z,23.77
2019-06-27T02:01:31.106Z,24.05
2019-06-27T02:02:10.055Z,23.47
2019-06-27T02:02:48.435Z,24.87
2019-06-27T02:03:27.444Z,24.43
2019-06-27T02:04:06.417Z,25.92
2019-06-27T02:04:44.816Z,24.63
2019-06-27T02:05:23.865Z,24.50
2019-06-27T02:06:02.850Z,25.60
2019-06-27T02:06:41.195Z,24.20
2019-06-27T02:07:20.162Z,25.08
2019-06-27T02:07:59.110Z,24.70
2019-06-27T02:08:37.463Z,26.33
2019-06-27T02:09:16.422Z,25.30
2019-06-27T02:09:55.419Z,25.37
2019-06-27T02:10:33.778Z,29.52
2019-06-27T02:11:12.735Z,28.35
2019-06-27T02:11:51.670Z,25.65
2019-06-27T02:12:30.052Z,27.17
2019-06-27T02:13:09.096Z,24.63
2019-06-27T02:13:48.011Z,26.25
2019-06-27T02:14:26.342Z,24.40
2019-06-27T02:15:05.323Z,25.55
2019-06-27T02:15:44.282Z,25.37
2019-06-27T02:16:22.630Z,25.45
2019-06-27T02:17:01.628Z,25.88
2019-06-27T02:17:40.564Z,26.80
2019-06-27T02:18:19.155Z,26.27
2019-06-27T02:18:58.078Z,27.20
2019-06-27T02:19:37.031Z,24.65
2019-06-27T02:20:15.412Z,25.52
2019-06-27T02:20:54.351Z,25.20
2019-06-27T02:21:33.671Z,25.48
2019-06-27T02:22:12.063Z,27.67
2019-06-27T02:22:51.014Z,24.63
2019-06-27T02:23:29.959Z,25.65
2019-06-27T02:24:08.319Z,23.75
2019-06-27T02:24:47.364Z,25.02
2019-06-27T02:25:26.462Z,24.70
2019-06-27T02:26:04.890Z,24.90
2019-06-27T02:26:43.900Z,27.03
2019-06-27T02:27:22.830Z,23.98
2019-06-27T02:28:04.154Z,23.90
2019-06-27T02:28:42.796Z,28.30
2019-06-27T02:29:21.726Z,24.20
2019-06-27T02:30:00.221Z,23.80
2019-06-27T02:30:42.916Z,23.23
2019-06-27T02:31:21.928Z,23.75
2019-06-27T02:32:00.315Z,23.20
2019-06-27T02:32:39.370Z,22.50
2019-06-27T02:33:18.287Z,23.73
2019-06-27T02:33:56.752Z,23.98
2019-06-27T02:34:35.746Z,22.73
2019-06-27T02:35:15.802Z,23.38
2019-06-27T02:35:54.213Z,25.27
2019-06-27T02:36:33.127Z,28.73
2019-06-27T02:37:12.111Z,22.37
2019-06-27T02:37:50.480Z,24.07
2019-06-27T02:38:29.407Z,26.40
2019-06-27T02:39:08.491Z,23.98
2019-06-27T02:39:46.914Z,21.85
2019-06-27T02:40:25.846Z,23.83
2019-06-27T02:41:04.836Z,24.02
2019-06-27T02:41:43.232Z,21.93
2019-06-27T02:42:22.199Z,22.90
2019-06-27T02:43:01.090Z,25.85
2019-06-27T02:43:39.491Z,22.27
2019-06-27T02:44:18.473Z,25.02
2019-06-27T02:44:57.419Z,25.68
2019-06-27T02:45:35.833Z,23.20
2019-06-27T02:46:14.855Z,23.27
2019-06-27T02:46:54.083Z,24.15
2019-06-27T02:47:32.430Z,22.35
2019-06-27T02:48:11.402Z,23.05
2019-06-27T02:48:50.327Z,23.73
2019-06-27T02:49:28.707Z,22.58
2019-06-27T02:50:07.678Z,24.12
2019-06-27T02:50:46.623Z,22.83
2019-06-27T02:51:25.025Z,20.80
2019-06-27T02:52:03.975Z,23.40
2019-06-27T02:52:42.899Z,22.63
2019-06-27T02:53:21.395Z,23.98
2019-06-27T02:54:00.337Z,22.20
2019-06-27T02:54:39.273Z,22.23
2019-06-27T02:55:17.655Z,27.77
2019-06-27T02:55:56.758Z,21.97
2019-06-27T02:56:35.682Z,21.33
2019-06-27T02:57:14.107Z,25.90
2019-06-27T02:57:53.054Z,25.85
2019-06-27T02:58:32.682Z,22.93
2019-06-27T02:59:11.341Z,22.35
2019-06-27T02:59:50.278Z,22.02
2019-06-27T03:00:29.194Z,24.60
2019-06-27T03:01:07.593Z,23.80
2019-06-27T03:01:46.541Z,23.65
2019-06-27T03:02:25.469Z,26.70
2019-06-27T03:03:03.832Z,21.12
2019-06-27T03:03:42.771Z,22.67
2019-06-27T03:04:21.703Z,21.60
2019-06-27T03:05:00.087Z,25.35
2019-06-27T03:05:39.043Z,26.95
2019-06-27T03:06:17.996Z,21.90
2019-06-27T03:06:56.383Z,22.48
2019-06-27T03:07:35.315Z,25.70
2019-06-27T03:08:14.250Z,25.43
2019-06-27T03:08:52.679Z,21.52
2019-06-27T03:09:31.622Z,25.55
2019-06-27T03:10:10.962Z,23.30
2019-06-27T03:10:49.340Z,22.05
2019-06-27T03:11:31.123Z,20.57
2019-06-27T03:12:11.130Z,21.52
2019-06-27T03:12:49.458Z,21.40
2019-06-27T03:13:28.436Z,22.22
2019-06-27T03:14:07.423Z,21.17
2019-06-27T03:14:45.777Z,23.10
2019-06-27T03:15:24.792Z,24.52
2019-06-27T03:16:03.730Z,20.62
2019-06-27T03:16:42.186Z,22.63
2019-06-27T03:17:21.214Z,24.32
2019-06-27T03:18:00.205Z,22.70
2019-06-27T03:18:38.713Z,21.57
2019-06-27T03:19:17.708Z,23.20
2019-06-27T03:19:56.705Z,26.30
2019-06-27T03:20:35.038Z,24.30
2019-06-27T03:21:13.995Z,21.45
2019-06-27T03:21:53.000Z,20.80
2019-06-27T03:22:31.339Z,26.10
2019-06-27T03:23:10.316Z,23.02
2019-06-27T03:23:49.263Z,24.27
2019-06-27T03:24:28.532Z,22.10
2019-06-27T03:25:07.498Z,23.25
2019-06-27T03:25:46.500Z,20.35
2019-06-27T03:26:25.288Z,23.40
2019-06-27T03:27:04.217Z,20.95
2019-06-27T03:27:46.050Z,21.25
2019-06-27T03:28:25.218Z,24.05
2019-06-27T03:29:04.529Z,22.37
2019-06-27T03:29:43.487Z,21.25
2019-06-27T03:30:21.840Z,21.93
2019-06-27T03:31:00.790Z,21.10
2019-06-27T03:31:39.816Z,27.20
2019-06-27T03:32:18.822Z,23.98
2019-06-27T03:32:58.193Z,21.35
2019-06-27T03:33:37.427Z,21.33
2019-06-27T03:34:15.786Z,24.00
2019-06-27T03:34:54.783Z,21.52
2019-06-27T03:35:33.921Z,20.70
2019-06-27T03:36:12.885Z,23.55
2019-06-27T03:36:51.864Z,19.70
2019-06-27T03:37:30.808Z,24.27
2019-06-27T03:38:09.241Z,20.72
2019-06-27T03:38:48.502Z,24.20
2019-06-27T03:39:27.834Z,26.87
2019-06-27T03:40:06.515Z,20.40
2019-06-27T03:40:50.763Z,20.50
2019-06-27T03:41:29.786Z,21.75
2019-06-27T03:42:08.493Z,21.25
2019-06-27T03:42:47.429Z,19.80
2019-06-27T03:43:27.536Z,20.00
2019-06-27T03:44:06.473Z,22.05
2019-06-27T03:44:45.843Z,19.95
2019-06-27T03:45:25.045Z,20.37
2019-06-27T03:46:03.479Z,19.10
2019-06-27T03:46:42.444Z,19.47
2019-06-27T03:47:21.432Z,22.00
2019-06-27T03:48:00.522Z,20.23
2019-06-27T03:48:39.734Z,20.13
2019-06-27T03:49:18.707Z,20.65
2019-06-27T03:49:57.390Z,20.97
2019-06-27T03:50:36.662Z,22.50
2019-06-27T03:51:15.987Z,25.12
2019-06-27T03:51:54.358Z,20.70
2019-06-27T03:52:33.785Z,21.93
2019-06-27T03:53:12.852Z,18.40
2019-06-27T03:53:51.721Z,19.25
2019-06-27T03:54:30.914Z,18.35
2019-06-27T03:55:10.258Z,21.25
2019-06-27T03:55:48.698Z,20.88
2019-06-27T03:56:27.855Z,20.55
2019-06-27T03:57:06.771Z,23.90
2019-06-27T03:57:45.668Z,18.50
2019-06-27T03:58:24.962Z,18.05
2019-06-27T03:59:11.998Z,17.70
2019-06-27T03:59:44.282Z,19.57
2019-06-27T04:00:30.340Z,17.77
2019-06-27T04:01:09.297Z,21.20
2019-06-27T04:01:47.783Z,21.17
2019-06-27T04:02:26.663Z,22.42
2019-06-27T04:03:05.691Z,19.27
2019-06-27T04:03:44.101Z,20.85
2019-06-27T04:04:23.525Z,22.62
2019-06-27T04:05:02.683Z,19.30
2019-06-27T04:05:41.136Z,20.72
2019-06-27T04:06:20.144Z,20.37
2019-06-27T04:06:59.114Z,18.25
2019-06-27T04:07:38.267Z,22.07
2019-06-27T04:08:17.411Z,20.02
2019-06-27T04:08:56.438Z,22.27
2019-06-27T04:09:34.911Z,17.98
2019-06-27T04:10:17.393Z,23.85
2019-06-27T04:10:54.439Z,19.50
2019-06-27T04:11:32.958Z,20.52
2019-06-27T04:12:11.887Z,18.05
2019-06-27T04:12:50.965Z,20.20
2019-06-27T04:13:29.398Z,19.35
2019-06-27T04:14:12.680Z,18.20
2019-06-27T04:14:51.968Z,18.62
2019-06-27T04:15:30.569Z,27.10
2019-06-27T04:16:09.645Z,19.45
2019-06-27T04:16:49.418Z,26.52
2019-06-27T04:17:28.126Z,17.80
2019-06-27T04:18:08.576Z,19.07
2019-06-27T04:18:47.510Z,19.43
2019-06-27T04:19:25.952Z,20.70
2019-06-27T04:20:05.052Z,20.48
2019-06-27T04:20:45.089Z,18.13
2019-06-27T04:21:24.202Z,17.63
2019-06-27T04:22:03.706Z,19.60
2019-06-27T04:22:42.739Z,22.27
2019-06-27T04:23:21.128Z,17.90
2019-06-27T04:24:00.844Z,18.97
2019-06-27T04:24:39.781Z,19.57
2019-06-27T04:25:18.230Z,18.83
2019-06-27T04:25:57.754Z,19.57
2019-06-27T04:26:37.806Z,19.60
2019-06-27T04:27:16.181Z,20.55
2019-06-27T04:27:59.612Z,20.67
2019-06-27T04:28:36.612Z,21.70
2019-06-27T04:29:32.129Z,18.50
2019-06-27T04:29:56.309Z,18.30
2019-06-27T04:30:35.482Z,19.43
2019-06-27T04:31:14.815Z,18.17
2019-06-27T04:31:54.005Z,20.52
2019-06-27T04:32:33.207Z,20.72
2019-06-27T04:33:11.603Z,17.60
2019-06-27T04:33:50.886Z,17.60
2019-06-27T04:34:29.782Z,19.27
2019-06-27T04:35:08.287Z,18.92
2019-06-27T04:35:47.469Z,18.93
2019-06-27T04:36:26.600Z,18.53
2019-06-27T04:37:23.597Z,19.23
2019-06-27T04:38:02.643Z,19.83
2019-06-27T04:38:41.587Z,19.27
2019-06-27T04:39:19.929Z,18.53
2019-06-27T04:39:58.928Z,18.80
2019-06-27T04:40:38.269Z,16.77
2019-06-27T04:41:16.624Z,18.07
2019-06-27T04:41:55.767Z,17.70
2019-06-27T04:42:35.049Z,20.20
2019-06-27T04:43:13.451Z,17.63
2019-06-27T04:43:52.925Z,17.90
2019-06-27T04:44:32.302Z,18.05
2019-06-27T04:45:11.188Z,17.00
2019-06-27T04:45:50.103Z,18.93
2019-06-27T04:46:29.245Z,20.17
2019-06-27T04:47:09.027Z,18.70
2019-06-27T04:47:48.704Z,18.70
2019-06-27T04:48:27.765Z,17.20
2019-06-27T04:49:06.212Z,20.07
2019-06-27T04:49:45.380Z,22.83
2019-06-27T04:50:24.350Z,17.80
2019-06-27T04:51:03.382Z,23.35
2019-06-27T04:51:42.730Z,18.17
2019-06-27T04:52:21.948Z,17.20
2019-06-27T04:53:00.549Z,16.27
2019-06-27T04:53:39.496Z,18.50
2019-06-27T04:54:19.131Z,21.52
2019-06-27T04:55:01.714Z,17.50
2019-06-27T04:55:38.190Z,16.55
2019-06-27T04:56:17.164Z,17.30
2019-06-27T04:56:55.548Z,19.70
2019-06-27T04:57:34.878Z,19.40
2019-06-27T04:58:14.127Z,17.93
2019-06-27T04:58:52.503Z,20.37
2019-06-27T04:59:47.967Z,16.87
2019-06-27T05:00:12.123Z,17.00
2019-06-27T05:00:50.510Z,18.00
2019-06-27T05:01:33.668Z,17.25
2019-06-27T05:02:12.843Z,18.60
2019-06-27T05:02:51.246Z,17.43
2019-06-27T05:03:30.276Z,16.73
2019-06-27T05:04:09.323Z,19.67
2019-06-27T05:04:48.115Z,16.60
2019-06-27T05:05:27.326Z,17.13
2019-06-27T05:06:06.433Z,18.73
2019-06-27T05:06:44.906Z,15.93
2019-06-27T05:07:23.949Z,17.10
2019-06-27T05:08:03.123Z,17.33
2019-06-27T05:08:41.470Z,17.17
2019-06-27T05:09:20.431Z,17.85
2019-06-27T05:09:59.339Z,15.40
2019-06-27T05:10:37.695Z,17.20
2019-06-27T05:11:16.638Z,17.17
2019-06-27T05:11:55.595Z,16.53
2019-06-27T05:12:33.991Z,16.77
2019-06-27T05:13:12.945Z,17.30
2019-06-27T05:13:51.863Z,18.23
2019-06-27T05:14:32.521Z,19.75
2019-06-27T05:15:10.875Z,16.77
2019-06-27T05:15:49.795Z,17.30
2019-06-27T05:16:28.122Z,18.87
2019-06-27T05:17:07.058Z,17.30
2019-06-27T05:17:46.058Z,17.03
2019-06-27T05:18:24.464Z,18.30
2019-06-27T05:19:03.588Z,17.92
2019-06-27T05:19:42.608Z,20.00
2019-06-27T05:20:20.963Z,16.90
2019-06-27T05:21:00.013Z,18.63
2019-06-27T05:21:38.941Z,16.77
2019-06-27T05:22:17.337Z,19.37
2019-06-27T05:22:56.278Z,18.67
2019-06-27T05:23:35.242Z,17.40
2019-06-27T05:24:13.590Z,16.37
2019-06-27T05:24:52.586Z,16.73
2019-06-27T05:25:31.663Z,19.10
2019-06-27T05:26:29.382Z,18.23
2019-06-27T05:27:08.431Z,16.47
2019-06-27T05:27:47.408Z,15.63
2019-06-27T05:28:25.857Z,17.87
2019-06-27T05:29:04.910Z,20.90
2019-06-27T05:29:43.871Z,16.50
2019-06-27T05:30:22.274Z,18.50
2019-06-27T05:31:01.190Z,16.87
2019-06-27T05:31:40.119Z,24.13
2019-06-27T05:32:18.471Z,17.20
2019-06-27T05:32:57.439Z,18.90
2019-06-27T05:33:36.411Z,17.17
2019-06-27T05:34:14.764Z,16.73
2019-06-27T05:34:53.681Z,16.60
2019-06-27T05:35:32.608Z,17.03
2019-06-27T05:36:10.961Z,14.93
2019-06-27T05:36:49.893Z,17.77
2019-06-27T05:37:28.826Z,15.63
2019-06-27T05:38:07.343Z,16.80
2019-06-27T05:38:46.273Z,20.53
2019-06-27T05:39:25.217Z,22.30
2019-06-27T05:40:03.568Z,17.43
2019-06-27T05:40:42.489Z,17.23
2019-06-27T05:41:21.433Z,15.27
2019-06-27T05:41:59.813Z,18.80
2019-06-27T05:42:38.761Z,16.17
2019-06-27T05:43:17.711Z,16.30
2019-06-27T05:43:56.073Z,16.87
2019-06-27T05:44:35.263Z,16.23
2019-06-27T05:45:14.185Z,15.37
2019-06-27T05:45:52.533Z,17.70
2019-06-27T05:46:31.464Z,18.23
2019-06-27T05:47:10.361Z,18.03
2019-06-27T05:47:48.688Z,15.23
2019-06-27T05:48:27.688Z,16.40
2019-06-27T05:49:06.617Z,16.07
2019-06-27T05:49:44.957Z,16.93
2019-06-27T05:50:23.913Z,15.77
2019-06-27T05:51:02.889Z,16.37
2019-06-27T05:51:41.253Z,16.43
2019-06-27T05:52:20.204Z,14.80
2019-06-27T05:52:59.145Z,14.97
2019-06-27T05:53:37.481Z,15.80
2019-06-27T05:54:16.405Z,17.53
2019-06-27T05:54:55.420Z,19.37
2019-06-27T05:55:33.788Z,16.63
2019-06-27T05:56:12.716Z,16.53
2019-06-27T05:56:51.626Z,15.00
2019-06-27T05:57:29.956Z,16.23
2019-06-27T05:58:08.913Z,15.50
2019-06-27T05:58:50.912Z,17.53
2019-06-27T05:59:27.721Z,17.00
2019-06-27T06:00:06.677Z,15.53
2019-06-27T06:00:46.303Z,15.73
2019-06-27T06:01:24.642Z,15.47
2019-06-27T06:02:03.574Z,16.40
2019-06-27T06:02:42.457Z,16.03
2019-06-27T06:03:20.861Z,19.90
2019-06-27T06:03:59.821Z,16.60
2019-06-27T06:04:38.709Z,15.90
2019-06-27T06:05:17.199Z,16.73
2019-06-27T06:05:56.118Z,20.47
2019-06-27T06:06:35.040Z,15.00
2019-06-27T06:07:13.429Z,16.60
2019-06-27T06:07:52.466Z,17.10
2019-06-27T06:08:31.521Z,15.77
2019-06-27T06:09:10.305Z,16.80
2019-06-27T06:09:49.209Z,19.70
2019-06-27T06:10:28.153Z,16.07
2019-06-27T06:11:06.550Z,20.07
2019-06-27T06:11:45.520Z,15.57
2019-06-27T06:12:24.801Z,16.47
2019-06-27T06:13:03.241Z,17.00
2019-06-27T06:13:42.339Z,16.53
2019-06-27T06:14:21.333Z,16.47
2019-06-27T06:14:59.669Z,17.00
2019-06-27T06:15:38.702Z,15.23
2019-06-27T06:16:17.669Z,16.00
2019-06-27T06:16:56.105Z,15.73
2019-06-27T06:17:35.262Z,15.73
2019-06-27T06:18:15.769Z,16.03
2019-06-27T06:18:55.247Z,15.00
2019-06-27T06:19:36.760Z,19.80
2019-06-27T06:20:16.403Z,15.55
2019-06-27T06:20:58.350Z,16.00
2019-06-27T06:21:37.317Z,15.60
2019-06-27T06:22:16.190Z,15.93
2019-06-27T06:22:54.567Z,16.20
2019-06-27T06:23:33.541Z,15.50
2019-06-27T06:24:12.440Z,15.03
2019-06-27T06:24:50.796Z,16.10
2019-06-27T06:25:29.725Z,14.90
2019-06-27T06:26:08.655Z,15.67
2019-06-27T06:26:47.040Z,15.67
2019-06-27T06:27:26.058Z,16.30
2019-06-27T06:28:05.236Z,16.30
2019-06-27T06:28:43.831Z,15.43
2019-06-27T06:29:22.775Z,18.80
2019-06-27T06:30:01.714Z,16.77
2019-06-27T06:30:44.808Z,15.67
2019-06-27T06:31:20.646Z,15.63
2019-06-27T06:31:59.571Z,16.17
2019-06-27T06:32:37.958Z,15.53
2019-06-27T06:33:16.934Z,17.23
2019-06-27T06:33:55.901Z,22.23
2019-06-27T06:34:34.299Z,16.90
2019-06-27T06:35:13.312Z,15.30
2019-06-27T06:35:52.297Z,18.83
2019-06-27T06:36:30.836Z,15.40
2019-06-27T06:37:09.823Z,15.83
2019-06-27T06:37:48.814Z,14.70
2019-06-27T06:38:28.062Z,18.70
2019-06-27T06:39:08.674Z,15.50
2019-06-27T06:39:47.650Z,16.30
2019-06-27T06:40:26.581Z,18.97
2019-06-27T06:41:05.758Z,16.47
2019-06-27T06:41:45.412Z,16.83
2019-06-27T06:42:24.125Z,15.17
2019-06-27T06:43:03.119Z,15.30
2019-06-27T06:43:42.105Z,16.97
2019-06-27T06:44:21.572Z,15.17
2019-06-27T06:45:02.215Z,18.27
2019-06-27T06:45:42.747Z,16.57
2019-06-27T06:46:21.359Z,15.63
2019-06-27T06:47:01.954Z,15.63
2019-06-27T06:47:42.105Z,15.73
2019-06-27T06:48:22.357Z,14.80
2019-06-27T06:49:02.608Z,15.83
2019-06-27T06:49:41.625Z,15.83
2019-06-27T06:50:23.302Z,16.23
2019-06-27T06:51:00.452Z,14.87
2019-06-27T06:51:39.459Z,15.03
2019-06-27T06:52:17.873Z,17.20
2019-06-27T06:52:57.034Z,16.97
2019-06-27T06:53:36.054Z,14.27
2019-06-27T06:54:15.439Z,15.27
2019-06-27T06:54:56.764Z,18.27
2019-06-27T06:55:36.706Z,18.27
2019-06-27T06:56:15.369Z,16.10
2019-06-27T06:56:54.369Z,15.80
2019-06-27T06:57:34.328Z,17.37
2019-06-27T06:58:13.746Z,14.67
2019-06-27T06:58:52.661Z,15.97
2019-06-27T06:59:31.600Z,16.37
2019-06-27T07:00:10.112Z,16.30
2019-06-27T07:01:01.018Z,15.03
2019-06-27T07:01:29.695Z,15.80
2019-06-27T07:02:08.064Z,19.27
2019-06-27T07:02:47.015Z,15.40
2019-06-27T07:03:25.966Z,14.97
2019-06-27T07:04:04.484Z,15.30
2019-06-27T07:04:43.507Z,16.97
2019-06-27T07:05:22.434Z,16.60
2019-06-27T07:06:00.777Z,16.13
2019-06-27T07:06:39.925Z,15.17
2019-06-27T07:07:19.902Z,15.70
2019-06-27T07:07:59.265Z,14.93
2019-06-27T07:08:39.869Z,14.57
2019-06-27T07:09:19.550Z,16.80
2019-06-27T07:09:58.648Z,15.00
2019-06-27T07:10:38.898Z,16.00
2019-06-27T07:11:18.431Z,16.77
2019-06-27T07:11:56.797Z,16.47
2019-06-27T07:12:36.835Z,15.77
2019-06-27T07:13:16.554Z,17.50
2019-06-27T07:13:55.334Z,17.97
2019-06-27T07:14:34.819Z,15.60
2019-06-27T07:15:14.629Z,15.90
2019-06-27T07:15:52.981Z,16.77
2019-06-27T07:16:32.745Z,15.30
2019-06-27T07:17:12.779Z,15.73
2019-06-27T07:17:51.109Z,16.33
2019-06-27T07:18:30.153Z,16.40
2019-06-27T07:19:09.625Z,16.07
2019-06-27T07:19:49.713Z,16.00
2019-06-27T07:20:29.060Z,14.97
2019-06-27T07:21:08.287Z,15.53
2019-06-27T07:21:46.693Z,16.63
2019-06-27T07:22:25.602Z,15.80
2019-06-27T07:23:04.673Z,15.63
2019-06-27T07:23:43.079Z,16.83
2019-06-27T07:24:22.017Z,15.30
2019-06-27T07:25:00.910Z,15.53
2019-06-27T07:25:39.749Z,15.30
2019-06-27T07:26:21.910Z,15.57
2019-06-27T07:26:59.109Z,14.90
2019-06-27T07:27:38.221Z,19.90
2019-06-27T07:28:17.133Z,16.03
2019-06-27T07:28:56.057Z,15.70
2019-06-27T07:29:34.382Z,16.77
2019-06-27T07:30:13.353Z,16.17
2019-06-27T07:30:52.814Z,21.23
2019-06-27T07:31:31.147Z,16.70
2019-06-27T07:32:10.047Z,16.43
2019-06-27T07:32:49.731Z,15.77
2019-06-27T07:33:28.038Z,15.93
2019-06-27T07:34:06.949Z,16.73
2019-06-27T07:34:45.818Z,16.57
2019-06-27T07:35:24.141Z,16.80
2019-06-27T07:36:03.066Z,15.83
2019-06-27T07:36:42.009Z,17.03
2019-06-27T07:37:20.342Z,17.63
2019-06-27T07:37:59.301Z,19.53
2019-06-27T07:38:38.258Z,15.80
2019-06-27T07:39:16.558Z,17.57
2019-06-27T07:39:55.442Z,17.30
2019-06-27T07:40:34.401Z,15.37
2019-06-27T07:41:12.747Z,17.43
2019-06-27T07:41:51.673Z,16.30
2019-06-27T07:42:30.633Z,16.93
2019-06-27T07:43:08.979Z,16.80
2019-06-27T07:43:47.991Z,17.50
2019-06-27T07:44:27.114Z,15.90
2019-06-27T07:45:05.522Z,16.20
2019-06-27T07:45:44.460Z,16.33
2019-06-27T07:46:25.539Z,16.77
2019-06-27T07:47:03.359Z,16.73
2019-06-27T07:47:42.290Z,16.87
2019-06-27T07:48:21.232Z,15.93
2019-06-27T07:48:59.604Z,17.13
2019-06-27T07:49:38.505Z,19.07
2019-06-27T07:50:17.597Z,15.75
2019-06-27T07:50:56.025Z,15.60
2019-06-27T07:51:35.038Z,16.13
2019-06-27T07:52:13.971Z,16.30
2019-06-27T07:52:52.305Z,16.23
2019-06-27T07:53:31.270Z,16.03
2019-06-27T07:54:10.223Z,17.13
2019-06-27T07:54:48.614Z,15.93
2019-06-27T07:55:28.513Z,16.67
2019-06-27T07:56:07.565Z,17.70
2019-06-27T07:56:46.390Z,18.07
2019-06-27T07:57:25.761Z,16.63
2019-06-27T07:58:05.139Z,14.90
2019-06-27T07:58:44.473Z,17.07
2019-06-27T07:59:24.471Z,15.27
2019-06-27T08:00:04.706Z,17.27
2019-06-27T08:00:43.834Z,21.70
2019-06-27T08:01:34.597Z,15.90
2019-06-27T08:02:04.530Z,16.80
2019-06-27T08:02:44.608Z,18.63
2019-06-27T08:03:24.625Z,18.37
2019-06-27T08:04:04.211Z,20.10
2019-06-27T08:04:42.637Z,16.63
2019-06-27T08:05:21.717Z,15.83
2019-06-27T08:06:00.654Z,16.10
2019-06-27T08:06:39.106Z,16.93
2019-06-27T08:07:21.210Z,17.10
2019-06-27T08:07:58.979Z,15.33
2019-06-27T08:08:38.149Z,16.13
2019-06-27T08:09:18.714Z,16.43
2019-06-27T08:09:58.596Z,15.47
2019-06-27T08:10:37.915Z,21.03
2019-06-27T08:11:16.962Z,17.00
2019-06-27T08:11:56.169Z,17.13
2019-06-27T08:12:34.717Z,17.67
2019-06-27T08:13:14.105Z,16.77
2019-06-27T08:13:53.441Z,16.23
2019-06-27T08:14:31.787Z,16.07
2019-06-27T08:15:10.785Z,19.03
2019-06-27T08:15:50.266Z,15.77
2019-06-27T08:16:29.696Z,17.30
2019-06-27T08:17:09.369Z,17.63
2019-06-27T08:17:49.997Z,16.10
2019-06-27T08:18:29.325Z,17.53
2019-06-27T08:19:09.323Z,18.10
2019-06-27T08:19:48.223Z,17.50
2019-06-27T08:20:26.612Z,16.77
2019-06-27T08:21:05.761Z,17.27
2019-06-27T08:21:45.719Z,15.63
2019-06-27T08:22:24.115Z,17.43
2019-06-27T08:23:03.088Z,16.50
2019-06-27T08:23:42.243Z,17.17